Time;durP1;ratioP1;P1;durP2;ratioP2;P2;SDS_P1;SDS_P2;PMS_P1;PMS_P2;Temp;Humidity;BMP_temperature;BMP_pressure;BME280_temperature;BME280_humidity;BME280_pressure;Samples;Min_cycle;Max_cycle;Signal;HPM_P1;HPM_P2
2023/08/03 00:00:58;;;;;;;7.13;2.60;;;18.40;66.30;;;;;;5057373;28;20025;-63
2023/08/03 00:03:26;;;;;;;10.88;2.70;;;18.50;65.60;;;;;;5057238;28;20392;-63
2023/08/03 00:05:53;;;;;;;7.10;2.22;;;18.90;65.30;;;;;;5057936;28;20391;-62
2023/08/03 00:08:21;;;;;;;5.53;2.35;;;19.10;64.80;;;;;;5057100;28;20017;-63
2023/08/03 00:10:48;;;;;;;8.50;2.40;;;19.10;63.50;;;;;;5058185;28;20139;-63
2023/08/03 00:13:16;;;;;;;8.13;2.35;;;19.60;62.30;;;;;;5057957;28;20473;-63
2023/08/03 00:15:43;;;;;;;3.75;1.80;;;20.20;61.40;;;;;;5058188;28;20029;-63
2023/08/03 00:18:11;;;;;;;6.68;2.28;;;20.60;60.00;;;;;;5057225;28;20021;-61
2023/08/03 00:20:39;;;;;;;6.55;2.33;;;20.20;60.60;;;;;;5058371;28;20031;-63
2023/08/03 00:23:06;;;;;;;8.80;2.30;;;20.10;60.90;;;;;;5056322;28;20029;-60
2023/08/03 00:25:34;;;;;;;4.88;2.33;;;19.70;61.20;;;;;;5056437;28;20024;-60
2023/08/03 00:28:01;;;;;;;7.00;2.72;;;20.10;60.80;;;;;;5056101;28;20025;-60
2023/08/03 00:30:29;;;;;;;10.15;2.70;;;19.40;62.20;;;;;;5057612;28;20028;-60
2023/08/03 00:32:56;;;;;;;5.85;2.67;;;19.20;62.90;;;;;;5056363;28;20047;-61
2023/08/03 00:35:24;;;;;;;7.40;2.55;;;19.80;62.20;;;;;;5057390;28;20021;-61
2023/08/03 00:37:53;;;;;;;8.30;2.78;;;20.10;60.40;;;;;;5056452;28;20032;-61
2023/08/03 00:40:21;;;;;;;7.13;2.40;;;19.90;61.90;;;;;;5057465;28;20505;-61
2023/08/03 00:42:49;;;;;;;6.47;2.40;;;20.10;61.50;;;;;;5057431;28;20100;-61
2023/08/03 00:45:17;;;;;;;6.10;2.25;;;20.10;61.10;;;;;;5057304;28;20020;-60
2023/08/03 00:47:44;;;;;;;6.82;2.38;;;20.80;60.10;;;;;;5057207;28;20025;-59
2023/08/03 00:50:12;;;;;;;8.00;2.45;;;20.90;58.40;;;;;;5057295;28;20067;-59
2023/08/03 00:52:39;;;;;;;8.60;3.13;;;20.40;60.60;;;;;;5056838;28;20025;-60
2023/08/03 00:55:07;;;;;;;6.80;2.20;;;21.10;59.00;;;;;;5055852;28;20049;-60
2023/08/03 00:57:34;;;;;;;8.00;2.72;;;20.90;59.10;;;;;;5056751;28;20021;-60
2023/08/03 01:00:02;;;;;;;8.70;2.60;;;20.60;59.30;;;;;;5055796;28;20029;-61
2023/08/03 01:02:30;;;;;;;7.43;2.85;;;20.10;59.80;;;;;;5055819;28;20451;-61
2023/08/03 01:04:57;;;;;;;7.80;2.47;;;20.40;58.70;;;;;;5055746;28;20366;-61
2023/08/03 01:07:26;;;;;;;5.53;2.35;;;20.90;58.00;;;;;;5055815;28;20041;-61
2023/08/03 01:09:53;;;;;;;7.03;2.40;;;21.50;57.80;;;;;;5057058;28;20028;-61
2023/08/03 01:12:21;;;;;;;6.10;2.47;;;21.20;57.30;;;;;;5056930;28;20096;-60
2023/08/03 01:14:48;;;;;;;4.78;2.30;;;21.80;55.90;;;;;;5056858;28;20082;-60
2023/08/03 01:17:16;;;;;;;6.70;3.00;;;21.60;56.10;;;;;;5055828;28;20478;-60
2023/08/03 01:19:44;;;;;;;5.43;2.67;;;22.10;55.40;;;;;;5056873;28;20447;-60
2023/08/03 01:22:13;;;;;;;6.80;2.55;;;21.90;55.90;;;;;;5056780;28;20025;-61
2023/08/03 01:24:41;;;;;;;7.63;2.67;;;21.60;55.60;;;;;;5055818;28;20025;-61
2023/08/03 01:27:09;;;;;;;8.98;3.08;;;21.80;56.30;;;;;;5055347;28;20051;-60
2023/08/03 01:29:36;;;;;;;6.75;2.75;;;21.70;56.90;;;;;;5056483;28;20024;-60
2023/08/03 01:32:04;;;;;;;6.63;2.60;;;21.90;56.30;;;;;;5056483;28;20025;-60
2023/08/03 01:34:33;;;;;;;8.10;2.50;;;22.30;55.40;;;;;;5056394;28;20056;-61
2023/08/03 01:37:00;;;;;;;5.15;2.53;;;21.70;56.30;;;;;;5056279;28;20066;-63
2023/08/03 01:39:35;;;;;;;5.57;2.38;;;22.10;56.80;;;;;;5056503;28;20021;-62
2023/08/03 01:42:03;;;;;;;6.80;2.63;;;22.80;54.80;;;;;;5055518;28;20025;-61
2023/08/03 01:44:31;;;;;;;7.07;2.95;;;23.00;54.40;;;;;;5055332;28;20029;-62
2023/08/03 01:47:00;;;;;;;20.30;9.48;;;22.60;55.50;;;;;;5055197;28;20025;-61
2023/08/03 01:49:32;;;;;;;5.72;2.60;;;23.40;52.40;;;;;;5055447;28;20025;-62
2023/08/03 01:51:59;;;;;;;8.10;3.33;;;22.80;53.60;;;;;;5039149;28;20017;-62
2023/08/03 01:54:27;;;;;;;6.07;2.60;;;22.60;54.30;;;;;;5055260;28;20021;-62
2023/08/03 01:56:54;;;;;;;6.22;2.35;;;23.00;52.80;;;;;;5055979;28;20024;-60
2023/08/03 01:59:22;;;;;;;6.63;3.05;;;22.90;52.80;;;;;;5055075;28;20471;-60
2023/08/03 02:01:50;;;;;;;5.18;2.35;;;23.10;53.40;;;;;;5054983;28;20474;-60
2023/08/03 02:04:18;;;;;;;6.18;2.05;;;23.40;53.00;;;;;;5055799;28;20031;-61
2023/08/03 02:06:57;;;;;;;6.50;2.55;;;24.00;52.10;;;;;;5055646;28;20052;-60
2023/08/03 02:09:25;;;;;;;5.63;2.05;;;23.90;52.10;;;;;;5056632;28;20443;-62
2023/08/03 02:11:52;;;;;;;4.72;2.00;;;23.40;50.30;;;;;;5055127;28;20056;-61
2023/08/03 02:14:20;;;;;;;6.18;2.35;;;23.40;52.60;;;;;;5054609;28;20021;-62
2023/08/03 02:16:47;;;;;;;5.38;2.13;;;23.60;51.30;;;;;;5056003;28;20075;-60
2023/08/03 02:19:15;;;;;;;4.65;2.17;;;23.50;52.00;;;;;;5055675;28;20359;-59
2023/08/03 02:21:42;;;;;;;6.30;1.90;;;23.30;50.60;;;;;;5055036;28;20112;-61
2023/08/03 02:24:09;;;;;;;7.10;2.20;;;23.50;52.10;;;;;;5055532;28;20021;-61
2023/08/03 02:26:37;;;;;;;7.03;2.38;;;23.40;50.50;;;;;;5055439;28;20053;-61
2023/08/03 02:29:04;;;;;;;5.72;2.05;;;23.20;51.20;;;;;;5055354;28;20020;-61
2023/08/03 02:31:32;;;;;;;5.38;2.55;;;23.20;51.10;;;;;;5054235;28;20021;-61
2023/08/03 02:33:59;;;;;;;5.20;2.20;;;23.10;51.30;;;;;;5054313;28;20017;-60
2023/08/03 02:36:27;;;;;;;4.95;2.10;;;23.60;50.00;;;;;;5054473;28;20044;-60
2023/08/03 02:38:54;;;;;;;4.47;2.10;;;23.60;49.50;;;;;;5054446;28;20025;-60
2023/08/03 02:41:22;;;;;;;6.35;2.15;;;24.00;49.00;;;;;;5055212;28;20021;-60
2023/08/03 02:43:49;;;;;;;4.45;2.30;;;24.00;49.50;;;;;;5055359;28;20498;-61
2023/08/03 02:46:17;;;;;;;4.28;2.20;;;24.10;49.50;;;;;;5054217;28;20025;-62
2023/08/03 02:48:44;;;;;;;4.88;2.40;;;24.20;48.50;;;;;;5054234;28;20036;-61
2023/08/03 02:51:12;;;;;;;5.38;2.15;;;24.20;47.00;;;;;;5055367;28;20025;-61
2023/08/03 02:53:39;;;;;;;5.07;2.47;;;24.10;48.00;;;;;;5055435;28;20029;-61
2023/08/03 02:56:07;;;;;;;5.10;2.53;;;24.30;46.80;;;;;;5054217;28;20093;-62
2023/08/03 02:58:34;;;;;;;4.95;2.15;;;23.60;47.20;;;;;;5054925;28;20176;-62
2023/08/03 03:01:04;;;;;;;6.65;2.40;;;24.20;47.00;;;;;;5054111;28;20029;-62
2023/08/03 03:03:32;;;;;;;4.90;2.05;;;24.40;45.30;;;;;;5054920;28;20108;-62
2023/08/03 03:05:59;;;;;;;4.07;2.30;;;23.80;47.10;;;;;;5054542;28;20049;-61
2023/08/03 03:08:27;;;;;;;7.50;2.38;;;24.30;46.90;;;;;;5054892;28;20074;-60
2023/08/03 03:10:54;;;;;;;6.28;2.33;;;24.40;47.20;;;;;;5053843;28;20017;-61
2023/08/03 03:13:23;;;;;;;5.72;2.22;;;25.10;45.70;;;;;;5054898;28;20067;-60
2023/08/03 03:15:51;;;;;;;5.03;2.00;;;24.80;45.00;;;;;;5053902;28;20029;-61
2023/08/03 03:18:18;;;;;;;6.47;2.10;;;24.90;45.70;;;;;;5053679;28;20025;-61
2023/08/03 03:20:46;;;;;;;4.45;1.73;;;24.90;44.80;;;;;;5053879;28;20118;-62
2023/08/03 03:23:13;;;;;;;4.47;1.95;;;24.90;43.40;;;;;;5056460;28;20031;-63
2023/08/03 03:25:41;;;;;;;5.43;2.17;;;25.10;44.30;;;;;;5059039;28;20351;-61
2023/08/03 03:28:08;;;;;;;6.57;2.33;;;25.10;44.00;;;;;;5058721;28;20029;-59
2023/08/03 03:30:35;;;;;;;5.20;2.03;;;25.10;44.60;;;;;;5058256;28;20112;-62
2023/08/03 03:33:03;;;;;;;5.63;1.70;;;25.30;44.80;;;;;;5057986;28;20061;-62
2023/08/03 03:35:31;;;;;;;6.57;2.10;;;25.50;45.50;;;;;;5058657;28;20028;-61
2023/08/03 03:37:58;;;;;;;3.75;2.10;;;25.40;44.20;;;;;;5057939;28;20025;-61
2023/08/03 03:40:26;;;;;;;4.90;2.00;;;25.60;43.00;;;;;;5057233;28;20017;-60
2023/08/03 03:42:53;;;;;;;5.63;1.90;;;25.60;43.40;;;;;;5058051;28;20355;-61
2023/08/03 03:45:21;;;;;;;4.75;1.88;;;25.30;43.80;;;;;;5058083;28;20017;-60
2023/08/03 03:47:49;;;;;;;4.65;2.33;;;25.50;44.30;;;;;;5057274;28;20026;-60
2023/08/03 03:50:16;;;;;;;4.93;2.38;;;25.50;43.20;;;;;;5058315;28;20025;-61
2023/08/03 03:52:44;;;;;;;8.13;2.10;;;25.80;42.30;;;;;;5058519;28;20040;-63
2023/08/03 03:55:11;;;;;;;3.58;1.60;;;25.60;42.80;;;;;;5057472;28;20029;-62
2023/08/03 03:57:39;;;;;;;4.72;1.70;;;25.80;41.70;;;;;;5057039;28;20044;-60
2023/08/03 04:00:16;;;;;;;4.95;1.85;;;25.90;42.10;;;;;;5057636;28;20017;-61
2023/08/03 04:02:49;;;;;;;4.07;1.70;;;25.60;42.50;;;;;;5057954;28;20025;-61
2023/08/03 04:05:19;;;;;;;5.20;1.90;;;25.30;41.80;;;;;;5057066;28;20072;-61
2023/08/03 04:07:53;;;;;;;5.82;2.03;;;25.60;42.60;;;;;;5058458;28;20421;-61
2023/08/03 04:10:21;;;;;;;4.50;2.00;;;25.90;41.40;;;;;;5059099;28;20021;-61
2023/08/03 04:12:48;;;;;;;5.88;1.83;;;26.00;41.60;;;;;;5057143;28;20044;-61
2023/08/03 04:15:16;;;;;;;4.13;1.83;;;25.40;42.70;;;;;;5056608;28;20122;-61
2023/08/03 04:17:45;;;;;;;3.30;1.60;;;25.40;42.00;;;;;;5057750;28;20025;-61
2023/08/03 04:20:14;;;;;;;4.65;2.22;;;25.60;42.70;;;;;;5058070;28;20499;-60
2023/08/03 04:22:41;;;;;;;4.47;1.70;;;25.70;41.70;;;;;;5056969;28;20035;-61
2023/08/03 04:25:10;;;;;;;5.07;2.17;;;26.10;42.30;;;;;;5053771;28;20064;-62
2023/08/03 04:27:43;;;;;;;3.92;1.80;;;25.70;41.50;;;;;;5052948;28;20470;-62
2023/08/03 04:30:13;;;;;;;5.32;1.83;;;26.10;41.60;;;;;;5054128;28;20462;-61
2023/08/03 04:32:46;;;;;;;7.30;2.00;;;26.50;41.90;;;;;;5055388;28;20528;-59
2023/08/03 04:35:14;;;;;;;4.75;1.77;;;26.10;41.10;;;;;;5052832;28;20370;-61
2023/08/03 04:37:46;;;;;;;3.35;1.75;;;25.70;41.60;;;;;;5056074;28;20036;-63
2023/08/03 04:40:13;;;;;;;4.30;1.73;;;26.50;41.40;;;;;;5057157;28;20035;-63
2023/08/03 04:42:41;;;;;;;4.60;1.70;;;26.20;42.00;;;;;;5057326;28;20032;-61
2023/08/03 04:45:09;;;;;;;5.22;1.85;;;26.60;41.50;;;;;;5066479;28;20020;-61
2023/08/03 04:47:38;;;;;;;6.15;2.15;;;26.80;40.20;;;;;;4954452;28;20041;-60
2023/08/03 04:50:10;;;;;;;3.80;1.90;;;26.60;40.30;;;;;;5053401;28;20025;-61
2023/08/03 04:52:38;;;;;;;4.05;1.92;;;26.60;40.60;;;;;;5053358;28;20109;-59
2023/08/03 04:55:05;;;;;;;4.07;1.85;;;26.90;40.90;;;;;;5055615;28;20116;-60
2023/08/03 04:57:33;;;;;;;3.78;1.70;;;27.30;40.00;;;;;;5056083;28;20036;-60
2023/08/03 05:00:00;;;;;;;4.53;2.00;;;27.50;39.70;;;;;;5055421;28;21224;-60
2023/08/03 05:02:34;;;;;;;2.78;1.88;;;27.50;40.00;;;;;;5068658;28;20075;-61
2023/08/03 05:05:01;;;;;;;3.17;2.08;;;27.50;39.80;;;;;;5054998;28;20060;-61
2023/08/03 05:07:36;;;;;;;5.35;1.95;;;27.80;39.00;;;;;;5055178;28;20059;-60
2023/08/03 05:10:09;;;;;;;4.88;1.80;;;26.60;41.80;;;;;;5056621;28;20386;-62
2023/08/03 05:12:45;;;;;;;3.30;1.88;;;26.00;43.50;;;;;;5055853;28;20032;-61
2023/08/03 05:15:18;;;;;;;6.00;2.00;;;25.90;43.20;;;;;;5055833;28;20083;-61
2023/08/03 05:17:56;;;;;;;4.18;1.65;;;26.10;43.70;;;;;;5053144;28;20033;-60
2023/08/03 05:20:30;;;;;;;4.05;2.03;;;26.10;43.10;;;;;;5056848;28;20021;-60
2023/08/03 05:23:02;;;;;;;3.10;1.63;;;26.10;43.10;;;;;;5057111;28;20025;-61
2023/08/03 05:25:37;;;;;;;3.95;1.67;;;26.00;43.00;;;;;;5055090;28;20025;-61
2023/08/03 05:28:11;;;;;;;4.93;1.88;;;26.10;42.70;;;;;;5057802;28;20450;-61
2023/08/03 05:30:44;;;;;;;5.18;1.92;;;26.20;42.70;;;;;;5057309;28;20473;-64
2023/08/03 05:33:18;;;;;;;3.83;1.90;;;26.90;42.40;;;;;;5058091;28;20036;-59
2023/08/03 05:35:51;;;;;;;2.67;1.70;;;27.50;41.30;;;;;;5057250;28;20027;-60
2023/08/03 05:38:23;;;;;;;5.85;1.98;;;26.80;41.70;;;;;;5057838;28;20064;-60
2023/08/03 05:41:00;;;;;;;3.33;1.75;;;26.20;42.90;;;;;;5056663;28;20455;-60
2023/08/03 05:43:33;;;;;;;3.88;1.60;;;26.70;41.80;;;;;;5056742;28;20028;-60
2023/08/03 05:46:05;;;;;;;4.25;1.92;;;26.50;41.80;;;;;;5055055;28;20451;-60
2023/08/03 05:48:38;;;;;;;3.10;1.55;;;26.20;42.50;;;;;;5056263;28;20074;-58
2023/08/03 05:51:05;;;;;;;6.18;1.95;;;26.60;42.10;;;;;;5056473;28;20025;-60
2023/08/03 05:53:34;;;;;;;4.82;2.10;;;26.00;42.80;;;;;;5056128;28;20032;-61
2023/08/03 05:56:02;;;;;;;4.03;1.70;;;26.20;42.30;;;;;;5054974;28;20059;-60
2023/08/03 05:58:30;;;;;;;5.15;1.90;;;26.40;41.70;;;;;;5055201;28;20032;-58
2023/08/03 06:00:58;;;;;;;2.83;1.60;;;26.60;41.90;;;;;;5055536;28;20343;-60
2023/08/03 06:03:34;;;;;;;2.80;1.60;;;27.00;41.50;;;;;;5055834;28;20017;-59
2023/08/03 06:06:04;;;;;;;4.82;1.90;;;26.50;42.50;;;;;;5056274;28;20067;-60
2023/08/03 06:08:33;;;;;;;4.82;1.70;;;25.70;43.20;;;;;;5055025;28;20029;-59
2023/08/03 06:11:03;;;;;;;3.42;1.67;;;24.40;45.20;;;;;;5056020;28;20336;-59
2023/08/03 06:13:34;;;;;;;3.72;1.60;;;23.00;47.70;;;;;;5055759;28;20112;-61
2023/08/03 06:16:11;;;;;;;3.45;1.88;;;22.20;49.50;;;;;;5055591;28;20028;-60
2023/08/03 06:18:59;;;;;;;5.95;2.03;;;21.90;50.50;;;;;;5055451;28;20099;-60
2023/08/03 06:21:28;;;;;;;4.50;2.00;;;21.70;51.10;;;;;;5054575;28;20035;-62
2023/08/03 06:23:58;;;;;;;3.80;1.52;;;21.60;51.50;;;;;;5055580;28;20044;-60
2023/08/03 06:26:27;;;;;;;4.50;1.90;;;21.60;51.10;;;;;;5055621;28;20025;-58
2023/08/03 06:28:56;;;;;;;5.22;1.77;;;21.60;51.20;;;;;;5054838;28;20033;-59
2023/08/03 06:31:41;;;;;;;4.18;2.10;;;21.60;52.00;;;;;;5055296;28;20059;-61
2023/08/03 06:34:12;;;;;;;2.97;1.58;;;21.50;51.80;;;;;;5055266;28;20110;-60
2023/08/03 06:36:44;;;;;;;3.23;1.50;;;21.40;51.50;;;;;;5054858;28;20100;-61
2023/08/03 06:39:11;;;;;;;6.75;1.80;;;21.30;51.60;;;;;;5055136;28;20258;-61
2023/08/03 06:41:39;;;;;;;4.13;1.55;;;21.20;52.10;;;;;;5055061;28;20021;-61
2023/08/03 06:44:08;;;;;;;4.35;1.60;;;21.20;51.80;;;;;;5054125;28;20020;-61
2023/08/03 06:46:36;;;;;;;3.53;1.90;;;21.10;52.30;;;;;;5055077;28;20021;-59
2023/08/03 06:49:04;;;;;;;3.70;1.83;;;21.00;52.70;;;;;;5054956;28;20025;-59
2023/08/03 06:51:32;;;;;;;4.38;1.63;;;20.90;52.60;;;;;;5053968;28;20036;-60
2023/08/03 06:54:02;;;;;;;4.00;1.60;;;20.90;53.20;;;;;;5053913;28;20040;-58
2023/08/03 06:56:31;;;;;;;4.70;1.60;;;20.70;53.70;;;;;;5054419;28;20029;-60
2023/08/03 06:58:59;;;;;;;7.85;1.85;;;20.70;54.50;;;;;;5053647;28;20043;-61
2023/08/03 07:01:27;;;;;;;6.10;2.00;;;20.60;54.90;;;;;;5054769;28;20070;-60
2023/08/03 07:03:55;;;;;;;3.47;1.67;;;20.50;55.90;;;;;;5054924;28;20021;-61
2023/08/03 07:06:22;;;;;;;4.55;1.88;;;20.40;56.50;;;;;;5053607;28;20437;-60
2023/08/03 07:08:52;;;;;;;6.65;2.00;;;20.30;57.90;;;;;;5053774;28;20053;-61
2023/08/03 07:11:20;;;;;;;4.55;1.70;;;20.30;58.60;;;;;;5054814;28;20075;-61
2023/08/03 07:13:48;;;;;;;4.15;2.17;;;20.10;59.20;;;;;;5053696;28;20025;-61
2023/08/03 07:16:15;;;;;;;5.53;1.73;;;20.00;59.70;;;;;;5054694;28;20029;-60
2023/08/03 07:18:43;;;;;;;3.95;1.70;;;19.90;60.90;;;;;;5054515;28;20017;-61
2023/08/03 07:21:10;;;;;;;6.13;1.73;;;19.80;61.30;;;;;;5053495;28;20107;-60
2023/08/03 07:23:38;;;;;;;6.90;1.92;;;19.60;61.60;;;;;;5053676;28;20415;-60
2023/08/03 07:26:13;;;;;;;6.82;2.08;;;19.40;62.30;;;;;;5053638;28;20111;-62
2023/08/03 07:28:40;;;;;;;8.18;1.80;;;19.20;63.50;;;;;;5053509;28;20055;-60
2023/08/03 07:31:14;;;;;;;5.95;1.90;;;19.10;63.90;;;;;;5054357;28;20109;-60
2023/08/03 07:33:42;;;;;;;3.78;1.95;;;19.00;64.40;;;;;;5053434;28;20121;-61
2023/08/03 07:36:17;;;;;;;4.30;1.90;;;18.90;64.80;;;;;;5053258;28;20435;-59
2023/08/03 07:38:45;;;;;;;5.85;2.60;;;18.80;65.20;;;;;;5037227;28;20055;-61
2023/08/03 07:41:12;;;;;;;7.18;2.05;;;18.70;65.60;;;;;;5054253;28;20032;-59
2023/08/03 07:43:39;;;;;;;6.85;2.65;;;18.50;66.40;;;;;;5053293;28;20029;-61
2023/08/03 07:46:07;;;;;;;5.82;2.67;;;18.40;66.70;;;;;;5054271;28;20025;-61
2023/08/03 07:48:34;;;;;;;8.48;3.13;;;18.30;67.20;;;;;;5053299;28;20091;-60
2023/08/03 07:51:17;;;;;;;10.80;3.33;;;18.20;67.30;;;;;;5054661;28;20021;-60
2023/08/03 07:53:45;;;;;;;9.40;2.90;;;18.00;68.40;;;;;;5053345;28;20439;-61
2023/08/03 07:56:17;;;;;;;10.38;2.70;;;18.00;68.80;;;;;;5054264;28;20449;-61
2023/08/03 07:58:50;;;;;;;11.25;3.30;;;17.90;68.90;;;;;;5053280;28;20039;-62
2023/08/03 08:01:19;;;;;;;12.98;4.15;;;17.80;69.30;;;;;;5053301;28;20021;-59
2023/08/03 08:03:47;;;;;;;10.20;4.22;;;17.70;70.30;;;;;;5053232;28;20021;-59
2023/08/03 08:06:20;;;;;;;8.43;3.60;;;17.60;70.70;;;;;;5054611;28;20045;-60
2023/08/03 08:08:49;;;;;;;7.63;4.45;;;17.60;71.30;;;;;;5054979;28;20037;-59
2023/08/03 08:11:18;;;;;;;13.57;6.10;;;17.60;71.10;;;;;;5057476;28;20308;-59
2023/08/03 08:13:46;;;;;;;13.15;6.10;;;17.50;71.80;;;;;;5057295;28;20462;-61
2023/08/03 08:16:16;;;;;;;15.57;7.45;;;17.50;72.00;;;;;;5057818;28;20025;-61
2023/08/03 08:18:44;;;;;;;14.52;6.68;;;17.40;72.10;;;;;;5056853;28;20071;-61
2023/08/03 08:21:14;;;;;;;14.23;6.72;;;17.30;72.30;;;;;;5057852;28;20115;-61
2023/08/03 08:23:42;;;;;;;11.45;5.57;;;17.30;72.60;;;;;;5057759;28;20447;-59
2023/08/03 08:26:15;;;;;;;16.50;6.72;;;17.10;72.30;;;;;;5056748;28;20040;-60
2023/08/03 08:28:44;;;;;;;8.98;4.80;;;17.10;72.30;;;;;;5056548;28;20021;-60
2023/08/03 08:31:11;;;;;;;12.80;5.57;;;16.80;73.80;;;;;;5057712;28;20071;-61
2023/08/03 08:33:39;;;;;;;10.93;4.90;;;16.80;73.90;;;;;;5057962;28;20112;-60
2023/08/03 08:36:07;;;;;;;8.32;4.82;;;16.80;74.00;;;;;;5056378;28;20455;-61
2023/08/03 08:38:34;;;;;;;8.82;6.03;;;16.50;74.60;;;;;;5057653;28;20016;-63
2023/08/03 08:41:03;;;;;;;26.70;16.85;;;16.50;74.20;;;;;;5057692;28;20064;-62
2023/08/03 08:43:32;;;;;;;24.48;14.20;;;16.60;74.70;;;;;;5057221;28;20042;-61
2023/08/03 08:46:00;;;;;;;28.58;14.75;;;16.70;74.80;;;;;;5056411;28;20039;-61
2023/08/03 08:48:27;;;;;;;23.17;14.40;;;16.90;74.00;;;;;;5057485;28;20324;-63
2023/08/03 08:51:00;;;;;;;23.08;13.55;;;16.80;74.00;;;;;;5056597;28;20055;-63
2023/08/03 08:53:28;;;;;;;23.83;14.73;;;16.70;74.30;;;;;;5056533;28;20060;-62
2023/08/03 08:55:56;;;;;;;23.58;14.68;;;16.60;74.10;;;;;;5056285;28;20036;-63
2023/08/03 08:58:24;;;;;;;21.05;13.93;;;16.60;74.00;;;;;;5057547;28;20342;-61
2023/08/03 09:00:52;;;;;;;18.98;12.98;;;16.50;74.10;;;;;;5056859;28;20351;-62
2023/08/03 09:03:19;;;;;;;20.80;13.63;;;16.40;74.40;;;;;;5057386;28;20021;-62
2023/08/03 09:05:59;;;;;;;21.00;13.13;;;16.20;74.60;;;;;;5056066;28;20040;-61
2023/08/03 09:08:27;;;;;;;13.98;9.32;;;16.10;75.10;;;;;;5056835;28;20063;-62
2023/08/03 09:10:57;;;;;;;18.02;10.65;;;16.10;75.50;;;;;;5056981;28;20362;-62
2023/08/03 09:13:34;;;;;;;18.73;10.90;;;16.10;75.20;;;;;;5056288;28;20051;-62
2023/08/03 09:16:02;;;;;;;18.13;10.75;;;15.90;75.10;;;;;;5057022;28;20067;-63
2023/08/03 09:18:31;;;;;;;18.90;10.27;;;15.70;76.00;;;;;;5056667;28;20075;-62
2023/08/03 09:21:21;;;;;;;18.42;9.88;;;15.70;76.20;;;;;;5056692;28;20021;-62
2023/08/03 09:23:48;;;;;;;14.18;9.50;;;15.60;75.80;;;;;;5055992;28;20055;-63
2023/08/03 09:26:23;;;;;;;13.02;8.75;;;15.60;76.00;;;;;;5055789;28;20072;-61
2023/08/03 09:28:51;;;;;;;13.85;8.90;;;15.50;76.00;;;;;;5039068;28;20071;-61
2023/08/03 09:31:24;;;;;;;14.13;8.50;;;15.50;75.70;;;;;;5055516;28;20025;-61
2023/08/03 09:33:58;;;;;;;15.48;8.88;;;15.40;76.70;;;;;;5056221;28;20044;-63
2023/08/03 09:36:28;;;;;;;15.60;8.40;;;15.40;76.20;;;;;;5055766;28;20111;-62
2023/08/03 09:39:14;;;;;;;13.95;7.88;;;15.20;76.60;;;;;;5057261;28;20059;-62
2023/08/03 09:41:43;;;;;;;11.95;7.43;;;15.10;76.60;;;;;;5055850;28;20021;-61
2023/08/03 09:44:14;;;;;;;14.55;7.95;;;15.10;76.30;;;;;;5056086;28;20020;-64
2023/08/03 09:46:42;;;;;;;15.07;8.02;;;14.90;76.80;;;;;;5056269;28;20036;-61
2023/08/03 09:49:10;;;;;;;12.80;8.20;;;14.80;76.80;;;;;;5056473;28;20029;-61
2023/08/03 09:51:41;;;;;;;14.80;8.05;;;14.80;77.10;;;;;;5056275;28;20063;-61
2023/08/03 09:54:23;;;;;;;15.60;7.55;;;14.70;77.30;;;;;;5055097;28;20066;-61
2023/08/03 09:56:54;;;;;;;14.27;7.57;;;14.70;77.10;;;;;;5056157;28;20394;-61
2023/08/03 09:59:28;;;;;;;13.10;8.02;;;14.70;77.20;;;;;;5055312;28;20058;-63
2023/08/03 10:02:00;;;;;;;12.15;7.30;;;14.70;77.10;;;;;;5055078;28;20025;-61
2023/08/03 10:04:33;;;;;;;12.85;7.95;;;14.70;77.40;;;;;;5054976;28;20032;-61
2023/08/03 10:07:06;;;;;;;12.90;7.15;;;14.60;77.00;;;;;;5055767;28;20126;-62
2023/08/03 10:09:40;;;;;;;13.88;7.88;;;14.60;77.00;;;;;;5054963;28;20036;-62
2023/08/03 10:12:16;;;;;;;12.68;7.68;;;14.50;77.30;;;;;;5055733;28;20048;-62
2023/08/03 10:14:45;;;;;;;11.40;7.13;;;14.50;77.60;;;;;;5055840;28;20350;-61
2023/08/03 10:17:14;;;;;;;14.75;8.38;;;14.30;78.30;;;;;;5055528;28;20039;-61
2023/08/03 10:19:42;;;;;;;14.32;8.10;;;14.10;78.90;;;;;;5055584;28;20443;-62
2023/08/03 10:22:10;;;;;;;15.80;8.20;;;14.00;79.40;;;;;;5054828;28;20100;-64
2023/08/03 10:24:38;;;;;;;16.50;9.50;;;14.10;78.70;;;;;;5055457;28;20021;-60
2023/08/03 10:27:25;;;;;;;18.58;10.68;;;14.00;79.00;;;;;;5054139;28;20052;-60
2023/08/03 10:29:57;;;;;;;19.52;13.43;;;14.10;78.90;;;;;;5054676;28;20114;-61
2023/08/03 10:32:27;;;;;;;20.02;13.38;;;13.90;80.20;;;;;;5055012;28;20017;-60
2023/08/03 10:34:59;;;;;;;20.45;11.68;;;13.60;81.40;;;;;;5054575;28;20035;-63
2023/08/03 10:37:27;;;;;;;17.35;10.18;;;13.50;81.50;;;;;;5055206;28;20020;-63
2023/08/03 10:39:59;;;;;;;15.60;9.05;;;13.50;81.00;;;;;;5055228;28;20505;-63
2023/08/03 10:42:35;;;;;;;14.77;8.30;;;13.30;82.10;;;;;;5055798;28;20033;-63
2023/08/03 10:45:26;;;;;;;15.32;8.45;;;13.10;82.90;;;;;;5055214;28;20100;-62
2023/08/03 10:48:01;;;;;;;14.60;7.78;;;13.10;82.30;;;;;;5052453;28;20051;-61
2023/08/03 10:51:03;;;;;;;13.98;8.25;;;13.00;82.80;;;;;;5053977;28;20443;-61
2023/08/03 10:53:31;;;;;;;14.05;8.57;;;12.80;83.70;;;;;;5054617;28;20037;-61
2023/08/03 10:56:07;;;;;;;15.10;8.80;;;12.70;84.00;;;;;;5054992;28;20083;-62
2023/08/03 10:59:04;;;;;;;15.00;9.23;;;12.60;84.50;;;;;;5053925;28;20014;-62
2023/08/03 11:01:32;;;;;;;13.93;9.00;;;12.60;84.10;;;;;;5046758;28;20029;-62
2023/08/03 11:04:02;;;;;;;17.58;10.38;;;12.60;84.60;;;;;;5053843;28;20021;-62
2023/08/03 11:06:30;;;;;;;18.65;10.80;;;12.60;84.60;;;;;;5053645;28;20049;-62
2023/08/03 11:08:58;;;;;;;19.20;10.55;;;12.60;84.60;;;;;;5054947;28;20078;-62
2023/08/03 11:11:32;;;;;;;20.17;11.32;;;12.50;84.60;;;;;;5054895;28;20036;-64
2023/08/03 11:14:00;;;;;;;20.20;10.30;;;12.60;84.40;;;;;;5054964;28;20057;-63
2023/08/03 11:16:27;;;;;;;16.83;10.23;;;12.50;83.90;;;;;;5053754;28;20040;-63
2023/08/03 11:18:55;;;;;;;18.95;12.27;;;12.50;83.50;;;;;;5054822;28;20024;-63
2023/08/03 11:21:22;;;;;;;19.67;10.02;;;12.60;83.20;;;;;;5053911;28;20092;-62
2023/08/03 11:23:52;;;;;;;17.70;10.65;;;12.50;83.30;;;;;;5054138;28;20025;-61
2023/08/03 11:26:20;;;;;;;15.50;10.52;;;12.30;84.40;;;;;;5054641;28;20529;-62
2023/08/03 11:28:49;;;;;;;18.88;12.15;;;12.10;85.00;;;;;;5054644;28;20021;-62
2023/08/03 11:31:21;;;;;;;18.73;11.35;;;12.00;85.50;;;;;;5054712;28;20028;-62
2023/08/03 11:33:54;;;;;;;16.90;11.73;;;11.80;86.10;;;;;;5054670;28;20079;-62
2023/08/03 11:36:23;;;;;;;16.25;11.18;;;11.80;86.40;;;;;;5054669;28;20427;-63
2023/08/03 11:38:52;;;;;;;25.48;13.27;;;11.90;86.00;;;;;;5054509;28;20387;-62
2023/08/03 11:41:24;;;;;;;19.55;12.38;;;11.90;86.00;;;;;;5053556;28;20065;-63
2023/08/03 11:43:52;;;;;;;18.10;10.82;;;12.00;85.90;;;;;;5055541;28;20045;-60
2023/08/03 11:46:28;;;;;;;19.10;12.40;;;12.00;84.30;;;;;;5057514;28;20044;-61
2023/08/03 11:49:01;;;;;;;20.27;12.63;;;12.00;84.10;;;;;;5057661;28;20025;-62
2023/08/03 11:51:38;;;;;;;20.02;12.55;;;11.90;85.00;;;;;;5058769;28;20035;-61
2023/08/03 11:54:24;;;;;;;19.67;13.25;;;11.80;85.70;;;;;;5059390;28;20029;-62
2023/08/03 11:56:52;;;;;;;20.40;13.73;;;11.70;85.80;;;;;;5057202;28;20024;-63
2023/08/03 11:59:20;;;;;;;24.77;14.38;;;11.80;85.80;;;;;;5057624;28;20048;-63
2023/08/03 12:01:50;;;;;;;21.90;13.57;;;11.80;85.90;;;;;;5057264;28;20075;-64
2023/08/03 12:04:20;;;;;;;20.65;13.25;;;11.80;85.60;;;;;;5057260;28;20447;-61
2023/08/03 12:06:51;;;;;;;21.55;13.50;;;11.80;84.10;;;;;;5057238;28;20049;-62
2023/08/03 12:09:26;;;;;;;22.08;12.20;;;11.80;84.70;;;;;;5057129;28;20029;-63
2023/08/03 12:12:04;;;;;;;19.42;13.23;;;11.70;84.80;;;;;;5058225;28;20421;-62
2023/08/03 12:14:32;;;;;;;23.20;13.30;;;11.60;84.60;;;;;;5057183;28;20120;-62
2023/08/03 12:16:59;;;;;;;19.73;13.00;;;11.60;84.60;;;;;;5056963;28;20029;-61
2023/08/03 12:19:34;;;;;;;23.20;12.88;;;11.50;85.20;;;;;;5057985;28;20021;-61
2023/08/03 12:22:03;;;;;;;19.15;12.57;;;11.50;85.20;;;;;;5056911;28;20451;-63
2023/08/03 12:24:31;;;;;;;20.17;12.43;;;11.40;85.80;;;;;;5057879;28;20032;-63
2023/08/03 12:27:00;;;;;;;17.60;12.07;;;11.40;85.30;;;;;;5056958;28;20037;-63
2023/08/03 12:29:27;;;;;;;17.95;11.73;;;11.30;85.60;;;;;;5056843;28;20420;-63
2023/08/03 12:31:55;;;;;;;17.65;10.93;;;11.30;86.10;;;;;;5057819;28;20036;-64
2023/08/03 12:34:22;;;;;;;19.20;11.57;;;11.40;85.40;;;;;;5056676;28;20021;-63
2023/08/03 12:36:50;;;;;;;23.17;13.48;;;11.40;85.10;;;;;;5056582;28;20029;-63
2023/08/03 12:39:18;;;;;;;19.27;12.55;;;11.30;85.20;;;;;;5056674;28;20021;-63
2023/08/03 12:41:46;;;;;;;18.98;12.23;;;11.30;84.90;;;;;;5056901;28;20367;-63
2023/08/03 12:44:13;;;;;;;20.08;13.43;;;11.30;85.10;;;;;;5057566;28;20020;-63
2023/08/03 12:46:41;;;;;;;18.42;12.35;;;11.20;84.90;;;;;;5056443;28;20029;-62
2023/08/03 12:49:08;;;;;;;20.80;13.55;;;11.30;84.90;;;;;;5056760;28;20021;-62
2023/08/03 12:51:36;;;;;;;23.40;13.65;;;11.10;84.60;;;;;;5056449;28;20458;-62
2023/08/03 12:54:05;;;;;;;18.17;12.45;;;11.00;84.90;;;;;;5057285;28;20032;-62